createdAt,value
2018-02-23T00:00:23.015Z,5.70
2018-02-23T00:02:50.323Z,5.80
2018-02-23T00:05:17.640Z,5.57
2018-02-23T00:07:47.260Z,6.03
2018-02-23T00:10:14.627Z,5.70
2018-02-23T00:12:50.489Z,5.17
2018-02-23T00:15:36.903Z,5.70
2018-02-23T00:18:04.290Z,5.77
2018-02-23T00:20:31.618Z,5.67
2018-02-23T00:22:58.971Z,4.97
2018-02-23T00:25:26.374Z,5.23
2018-02-23T00:27:54.105Z,5.33
2018-02-23T00:30:28.896Z,5.63
2018-02-23T00:32:56.248Z,7.90
2018-02-23T00:35:23.587Z,6.43
2018-02-23T00:37:50.918Z,5.43
2018-02-23T00:40:18.316Z,6.97
2018-02-23T00:42:45.660Z,5.37
2018-02-23T00:45:19.909Z,8.30
2018-02-23T00:47:47.280Z,8.07
2018-02-23T00:50:14.603Z,5.30
2018-02-23T00:52:41.949Z,8.10
2018-02-23T00:55:09.291Z,7.93
2018-02-23T00:57:36.668Z,7.70
2018-02-23T01:00:04.010Z,7.70
2018-02-23T01:02:31.366Z,8.73
2018-02-23T01:04:58.676Z,4.93
2018-02-23T01:07:26.052Z,8.07
2018-02-23T01:10:04.476Z,5.10
2018-02-23T01:12:32.182Z,8.70
2018-02-23T01:15:10.155Z,6.40
2018-02-23T01:17:41.969Z,8.50
2018-02-23T01:23:08.862Z,4.90
2018-02-23T01:25:36.568Z,4.97
2018-02-23T01:28:07.666Z,5.10
2018-02-23T01:30:35.388Z,4.60
2018-02-23T01:33:02.733Z,4.87
2018-02-23T01:35:30.040Z,4.37
2018-02-23T01:37:57.734Z,5.03
2018-02-23T01:40:25.443Z,4.73
2018-02-23T01:42:52.849Z,3.40
2018-02-23T01:45:20.188Z,4.90
2018-02-23T01:47:47.957Z,4.03
2018-02-23T01:50:15.374Z,3.77
2018-02-23T01:52:42.697Z,3.63
2018-02-23T01:55:10.067Z,4.83
2018-02-23T01:57:37.438Z,5.77
2018-02-23T02:00:15.562Z,4.17
2018-02-23T02:02:42.901Z,4.87
2018-02-23T02:05:10.700Z,4.63
2018-02-23T02:07:46.574Z,5.33
2018-02-23T02:10:13.897Z,4.60
2018-02-23T02:12:41.621Z,4.87
2018-02-23T02:15:15.085Z,4.63
2018-02-23T02:17:42.389Z,4.97
2018-02-23T02:20:09.792Z,3.43
2018-02-23T02:22:37.111Z,4.37
2018-02-23T02:25:04.456Z,5.57
2018-02-23T02:27:31.829Z,4.97
2018-02-23T02:30:20.745Z,4.63
2018-02-23T02:32:48.047Z,4.47
2018-02-23T02:35:15.762Z,3.60
2018-02-23T02:37:43.209Z,3.37
2018-02-23T02:40:10.561Z,4.23
2018-02-23T02:42:37.852Z,4.73
2018-02-23T02:45:13.662Z,2.70
2018-02-23T02:47:41.001Z,3.87
2018-02-23T02:50:15.692Z,5.37
2018-02-23T02:52:43.012Z,4.27
2018-02-23T02:55:17.227Z,6.23
2018-02-23T02:57:44.553Z,3.07
2018-02-23T03:00:11.880Z,6.00
2018-02-23T03:02:39.223Z,4.90
2018-02-23T03:05:06.639Z,3.30
2018-02-23T03:07:33.986Z,5.50
2018-02-23T03:10:01.342Z,5.13
2018-02-23T03:12:28.661Z,5.00
2018-02-23T03:14:56.451Z,4.83
2018-02-23T03:17:23.836Z,3.23
2018-02-23T03:19:51.267Z,3.90
2018-02-23T03:22:18.624Z,3.83
2018-02-23T03:24:45.912Z,3.57
2018-02-23T03:27:13.785Z,6.17
2018-02-23T03:29:41.208Z,3.90
2018-02-23T03:32:08.561Z,4.03
2018-02-23T03:34:35.898Z,3.57
2018-02-23T03:37:03.592Z,3.47
2018-02-23T03:39:32.886Z,4.53
2018-02-23T03:42:00.237Z,3.43
2018-02-23T03:44:27.552Z,4.13
2018-02-23T03:46:54.898Z,3.03
2018-02-23T03:49:22.214Z,4.53
2018-02-23T03:51:51.474Z,3.97
2018-02-23T03:54:19.214Z,3.83
2018-02-23T03:56:57.795Z,3.60
2018-02-23T03:59:25.130Z,5.97
2018-02-23T04:01:52.444Z,3.17
2018-02-23T04:04:19.744Z,2.57
2018-02-23T04:06:47.041Z,6.07
2018-02-23T04:09:14.343Z,3.90
2018-02-23T04:11:41.667Z,3.17
2018-02-23T04:14:08.961Z,5.70
2018-02-23T04:16:36.298Z,6.10
2018-02-23T04:19:04.020Z,5.40
2018-02-23T04:21:31.302Z,4.00
2018-02-23T04:23:58.992Z,3.57
2018-02-23T04:26:31.110Z,5.40
2018-02-23T04:28:58.459Z,2.70
2018-02-23T04:31:25.823Z,5.10
2018-02-23T04:33:53.191Z,5.13
2018-02-23T04:36:20.909Z,5.73
2018-02-23T04:38:58.778Z,5.90
2018-02-23T04:41:29.103Z,4.20
2018-02-23T04:43:56.447Z,4.30
2018-02-23T04:46:35.227Z,6.03
2018-02-23T04:49:10.353Z,3.53
2018-02-23T04:51:37.743Z,3.63
2018-02-23T04:54:05.068Z,4.63
2018-02-23T04:56:32.406Z,2.60
2018-02-23T04:58:59.778Z,3.67
2018-02-23T05:01:27.142Z,3.50
2018-02-23T05:03:54.436Z,5.23
2018-02-23T05:06:22.275Z,4.90
2018-02-23T05:08:49.634Z,4.17
2018-02-23T05:11:16.996Z,4.80
2018-02-23T05:13:44.356Z,3.13
2018-02-23T05:16:12.122Z,3.43
2018-02-23T05:18:43.946Z,5.03
2018-02-23T05:21:11.377Z,3.40
2018-02-23T05:23:53.887Z,5.07
2018-02-23T05:26:21.206Z,3.87
2018-02-23T05:28:48.899Z,5.50
2018-02-23T05:31:16.227Z,5.60
2018-02-23T05:33:43.898Z,4.70
2018-02-23T05:36:11.592Z,2.63
2018-02-23T05:38:38.994Z,3.63
2018-02-23T05:41:06.341Z,3.70
2018-02-23T05:43:33.703Z,3.63
2018-02-23T05:46:00.993Z,3.23
2018-02-23T05:48:28.360Z,4.63
2018-02-23T05:50:55.675Z,4.20
2018-02-23T05:53:23.431Z,4.43
2018-02-23T05:55:50.937Z,4.63
2018-02-23T05:58:18.265Z,5.50
2018-02-23T06:00:53.708Z,3.97
2018-02-23T06:03:21.437Z,6.10
2018-02-23T06:05:49.193Z,6.33
2018-02-23T06:08:16.539Z,4.03
2018-02-23T06:10:43.867Z,7.23
2018-02-23T06:13:11.247Z,4.10
2018-02-23T06:15:44.174Z,5.97
2018-02-23T06:18:11.959Z,3.43
2018-02-23T06:20:39.242Z,3.87
2018-02-23T06:23:26.593Z,4.57
2018-02-23T06:25:54.370Z,3.17
2018-02-23T06:28:38.800Z,4.53
2018-02-23T06:31:14.167Z,4.40
2018-02-23T06:33:48.181Z,4.73
2018-02-23T06:36:15.977Z,5.53
2018-02-23T06:38:47.334Z,2.83
2018-02-23T06:41:16.674Z,3.27
2018-02-23T06:43:44.018Z,4.30
2018-02-23T06:46:11.373Z,5.47
2018-02-23T06:48:54.056Z,5.53
2018-02-23T06:51:22.383Z,7.53
2018-02-23T06:53:49.761Z,6.40
2018-02-23T06:56:17.087Z,6.80
2018-02-23T06:58:44.447Z,8.53
2018-02-23T07:01:11.818Z,9.93
2018-02-23T07:03:39.150Z,9.70
2018-02-23T07:06:06.449Z,7.93
2018-02-23T07:08:34.176Z,7.30
2018-02-23T07:11:01.503Z,7.93
2018-02-23T07:13:46.206Z,7.23
2018-02-23T07:16:13.525Z,9.77
2018-02-23T07:18:40.848Z,5.27
2018-02-23T07:21:08.171Z,7.60
2018-02-23T07:23:35.597Z,6.80
2018-02-23T07:26:02.910Z,6.13
2018-02-23T07:28:30.229Z,9.10
2018-02-23T07:30:57.560Z,6.30
2018-02-23T07:33:24.874Z,8.20
2018-02-23T07:35:52.232Z,8.20
2018-02-23T07:38:27.625Z,9.30
2018-02-23T07:41:07.190Z,4.83
2018-02-23T07:43:34.563Z,8.07
2018-02-23T07:46:02.240Z,8.13
2018-02-23T07:48:29.522Z,9.83
2018-02-23T07:50:56.790Z,10.57
2018-02-23T07:53:29.311Z,8.30
2018-02-23T07:55:56.970Z,7.20
2018-02-23T07:58:28.121Z,9.27
2018-02-23T08:00:55.784Z,4.83
2018-02-23T08:03:31.395Z,9.80
2018-02-23T08:05:59.080Z,10.37
2018-02-23T08:08:45.425Z,7.03
2018-02-23T08:11:12.731Z,3.70
2018-02-23T08:13:46.790Z,6.63
2018-02-23T08:16:14.073Z,11.13
2018-02-23T08:18:41.357Z,7.70
2018-02-23T08:21:09.066Z,5.47
2018-02-23T08:23:36.366Z,9.17
2018-02-23T08:26:04.078Z,8.57
2018-02-23T08:28:31.393Z,5.90
2018-02-23T08:30:59.104Z,8.53
2018-02-23T08:33:26.414Z,8.13
2018-02-23T08:35:54.139Z,6.93
2018-02-23T08:38:23.439Z,10.33
2018-02-23T08:40:50.777Z,4.27
2018-02-23T08:43:20.009Z,6.90
2018-02-23T08:45:47.286Z,9.13
2018-02-23T08:51:11.706Z,8.10
2018-02-23T08:53:39.003Z,6.30
2018-02-23T08:56:06.302Z,6.33
2018-02-23T08:58:33.658Z,9.47
2018-02-23T09:01:06.107Z,5.50
2018-02-23T09:03:33.449Z,4.73
2018-02-23T09:06:00.788Z,5.50
2018-02-23T09:08:31.886Z,6.00
2018-02-23T09:10:59.243Z,4.53
2018-02-23T09:13:26.549Z,7.17
2018-02-23T09:15:58.052Z,7.47
2018-02-23T09:18:25.381Z,7.33
2018-02-23T09:20:53.179Z,6.40
2018-02-23T09:23:20.532Z,4.40
2018-02-23T09:25:47.831Z,5.50
2018-02-23T09:28:15.155Z,2.90
2018-02-23T09:30:42.589Z,4.33
2018-02-23T09:33:10.296Z,4.53
2018-02-23T09:35:37.688Z,4.43
2018-02-23T09:38:05.471Z,4.17
2018-02-23T09:40:32.800Z,2.87
2018-02-23T09:43:00.153Z,2.33
2018-02-23T09:45:27.895Z,3.77
2018-02-23T09:47:55.249Z,3.03
2018-02-23T09:50:22.545Z,5.20
2018-02-23T09:53:11.866Z,3.17
2018-02-23T09:55:39.216Z,3.60
2018-02-23T09:58:06.563Z,2.27
2018-02-23T10:00:33.921Z,3.57
2018-02-23T10:03:01.331Z,4.13
2018-02-23T10:05:29.020Z,2.47
2018-02-23T10:07:56.336Z,2.00
2018-02-23T10:10:23.692Z,2.87
2018-02-23T10:12:51.007Z,3.50
2018-02-23T10:15:30.464Z,2.17
2018-02-23T10:17:57.786Z,2.13
2018-02-23T10:20:25.149Z,1.73
2018-02-23T10:22:52.462Z,2.93
2018-02-23T10:25:20.137Z,2.03
2018-02-23T10:27:47.874Z,2.10
2018-02-23T10:30:15.192Z,2.37
2018-02-23T10:32:42.513Z,2.60
2018-02-23T10:35:09.908Z,3.90
2018-02-23T10:37:37.351Z,2.07
2018-02-23T10:40:28.497Z,3.00
2018-02-23T10:42:55.834Z,2.10
2018-02-23T10:45:23.236Z,3.13
2018-02-23T10:47:50.936Z,1.83
2018-02-23T10:50:18.256Z,2.97
2018-02-23T10:52:45.610Z,2.37
2018-02-23T10:55:13.335Z,2.37
2018-02-23T10:57:40.646Z,2.47
2018-02-23T11:00:15.178Z,1.53
2018-02-23T11:02:42.503Z,2.30
2018-02-23T11:05:10.210Z,2.70
2018-02-23T11:07:37.568Z,1.60
2018-02-23T11:10:04.931Z,1.53
2018-02-23T11:12:32.273Z,3.13
2018-02-23T11:14:59.581Z,2.80
2018-02-23T11:17:27.272Z,2.70
2018-02-23T11:19:54.589Z,2.57
2018-02-23T11:22:21.913Z,1.97
2018-02-23T11:24:53.413Z,2.10
2018-02-23T11:27:21.121Z,2.57
2018-02-23T11:29:48.395Z,3.00
2018-02-23T11:32:15.701Z,2.07
2018-02-23T11:35:08.478Z,2.53
2018-02-23T11:37:35.893Z,0.97
2018-02-23T11:40:03.571Z,2.03
2018-02-23T11:42:31.117Z,1.43
2018-02-23T11:44:58.450Z,1.90
2018-02-23T11:47:25.745Z,2.83
2018-02-23T11:49:53.037Z,3.03
2018-02-23T11:52:20.309Z,2.80
2018-02-23T11:54:47.638Z,2.47
2018-02-23T11:57:14.909Z,2.67
2018-02-23T11:59:42.210Z,3.27
2018-02-23T12:02:09.493Z,3.17
2018-02-23T12:04:36.803Z,2.67
2018-02-23T12:07:04.528Z,3.80
2018-02-23T12:09:31.809Z,2.63
2018-02-23T12:15:05.248Z,3.00
2018-02-23T12:17:39.230Z,3.17
2018-02-23T12:20:06.936Z,4.07
2018-02-23T12:22:34.209Z,2.87
2018-02-23T12:25:01.513Z,3.03
2018-02-23T12:27:29.172Z,3.80
2018-02-23T12:29:56.491Z,3.63
2018-02-23T12:32:23.751Z,2.33
2018-02-23T12:34:51.041Z,3.93
2018-02-23T12:37:25.817Z,2.67
2018-02-23T12:39:53.170Z,3.80
2018-02-23T12:42:20.448Z,1.17
2018-02-23T12:44:47.890Z,3.87
2018-02-23T12:47:38.661Z,2.93
2018-02-23T12:50:05.998Z,3.70
2018-02-23T12:52:33.334Z,3.83
2018-02-23T12:58:04.591Z,2.37
2018-02-23T13:00:33.850Z,3.77
2018-02-23T13:03:01.156Z,2.53
2018-02-23T13:05:28.839Z,2.80
2018-02-23T13:07:56.138Z,4.23
2018-02-23T13:10:23.426Z,2.17
2018-02-23T13:12:58.249Z,3.50
2018-02-23T13:15:25.958Z,4.50
2018-02-23T13:17:53.243Z,3.77
2018-02-23T13:20:20.498Z,3.60
2018-02-23T13:22:47.800Z,2.23
2018-02-23T13:25:15.108Z,4.83
2018-02-23T13:30:41.131Z,5.37
2018-02-23T13:33:08.454Z,2.73
2018-02-23T13:35:35.713Z,4.20
2018-02-23T13:38:03.963Z,4.10
2018-02-23T13:40:31.658Z,6.60
2018-02-23T13:42:58.941Z,6.40
2018-02-23T13:45:45.512Z,3.90
2018-02-23T13:48:12.816Z,5.57
2018-02-23T13:50:40.119Z,6.00
2018-02-23T13:53:13.048Z,4.67
2018-02-23T13:55:40.326Z,2.17
2018-02-23T13:58:07.985Z,3.90
2018-02-23T14:00:35.682Z,4.70
2018-02-23T14:03:02.958Z,5.37
2018-02-23T14:05:30.248Z,5.23
2018-02-23T14:08:11.897Z,5.13
2018-02-23T14:10:39.180Z,4.60
2018-02-23T14:13:06.486Z,5.43
2018-02-23T14:15:40.958Z,4.00
2018-02-23T14:18:08.244Z,4.63
2018-02-23T14:20:35.563Z,3.63
2018-02-23T14:23:02.872Z,5.23
2018-02-23T14:25:30.189Z,5.90
2018-02-23T14:27:58.073Z,3.47
2018-02-23T14:30:25.808Z,1.93
2018-02-23T14:32:53.083Z,5.20
2018-02-23T14:35:20.386Z,5.03
2018-02-23T14:37:47.664Z,5.40
2018-02-23T14:40:14.933Z,5.03
2018-02-23T14:42:42.289Z,5.13
2018-02-23T14:45:09.543Z,3.97
2018-02-23T14:47:37.221Z,4.10
2018-02-23T14:50:16.798Z,4.30
2018-02-23T14:52:44.111Z,5.83
2018-02-23T14:55:11.814Z,5.17
2018-02-23T14:57:39.074Z,5.23
2018-02-23T15:00:06.353Z,5.20
2018-02-23T15:02:33.709Z,6.00
2018-02-23T15:05:00.997Z,4.20
2018-02-23T15:07:28.331Z,5.03
2018-02-23T15:09:55.653Z,4.57
2018-02-23T15:12:22.941Z,6.50
2018-02-23T15:14:55.070Z,6.90
2018-02-23T15:17:22.352Z,4.60
2018-02-23T15:19:49.656Z,4.23
2018-02-23T15:22:23.682Z,3.37
2018-02-23T15:24:50.947Z,4.63
2018-02-23T15:27:18.290Z,3.43
2018-02-23T15:29:50.017Z,3.27
2018-02-23T15:32:39.089Z,3.87
2018-02-23T15:35:19.671Z,4.97
2018-02-23T15:37:52.769Z,5.63
2018-02-23T15:40:20.332Z,4.67
2018-02-23T15:42:51.825Z,4.87
2018-02-23T15:45:33.129Z,3.20
2018-02-23T15:48:06.176Z,4.37
2018-02-23T15:50:39.130Z,4.03
2018-02-23T15:53:06.426Z,5.07
2018-02-23T15:55:33.702Z,2.20
2018-02-23T15:58:16.300Z,3.37
2018-02-23T16:00:43.988Z,3.57
2018-02-23T16:03:30.062Z,3.67
2018-02-23T16:06:12.900Z,4.73
2018-02-23T16:08:40.257Z,4.17
2018-02-23T16:11:07.533Z,2.27
2018-02-23T16:13:34.816Z,4.93
2018-02-23T16:16:02.128Z,4.50
2018-02-23T16:18:29.464Z,5.40
2018-02-23T16:20:57.716Z,3.73
2018-02-23T16:23:24.970Z,4.17
2018-02-23T16:25:53.272Z,4.67
2018-02-23T16:28:20.561Z,5.17
2018-02-23T16:30:47.810Z,4.67
2018-02-23T16:33:15.119Z,5.80
2018-02-23T16:35:42.813Z,5.47
2018-02-23T16:38:20.424Z,4.77
2018-02-23T16:40:47.702Z,6.97
2018-02-23T16:43:15.979Z,6.83
2018-02-23T16:45:43.347Z,5.00
2018-02-23T16:48:16.117Z,5.57
2018-02-23T16:50:43.441Z,6.03
2018-02-23T16:53:10.726Z,6.87
2018-02-23T16:55:41.882Z,4.60
2018-02-23T16:58:09.143Z,5.47
2018-02-23T17:00:40.786Z,7.47
2018-02-23T17:03:08.166Z,7.00
2018-02-23T17:05:40.823Z,6.23
2018-02-23T17:08:08.129Z,5.70
2018-02-23T17:10:35.401Z,6.07
2018-02-23T17:13:02.709Z,5.27
2018-02-23T17:15:30.028Z,6.67
2018-02-23T17:17:57.302Z,6.63
2018-02-23T17:20:25.003Z,6.03
2018-02-23T17:25:52.182Z,6.83
2018-02-23T17:28:19.464Z,8.17
2018-02-23T17:30:46.756Z,6.17
2018-02-23T17:33:14.073Z,6.47
2018-02-23T17:35:41.388Z,4.33
2018-02-23T17:38:08.673Z,7.20
2018-02-23T17:40:35.971Z,6.60
2018-02-23T17:43:03.713Z,6.40
2018-02-23T17:45:30.980Z,6.57
2018-02-23T17:48:23.236Z,7.37
2018-02-23T17:50:50.517Z,6.77
2018-02-23T17:53:17.819Z,6.90
2018-02-23T17:55:45.487Z,6.50
2018-02-23T17:58:17.965Z,7.97
2018-02-23T18:00:45.651Z,4.77
2018-02-23T18:03:12.915Z,7.77
2018-02-23T18:05:44.816Z,7.03
2018-02-23T18:08:12.215Z,6.27
2018-02-23T18:10:39.520Z,7.33
2018-02-23T18:13:06.798Z,7.97
2018-02-23T18:15:34.208Z,8.33
2018-02-23T18:18:01.509Z,6.53
2018-02-23T18:20:28.813Z,8.23
2018-02-23T18:22:56.167Z,8.43
2018-02-23T18:25:45.083Z,7.47
2018-02-23T18:28:12.781Z,7.00
2018-02-23T18:30:40.043Z,6.33
2018-02-23T18:33:07.368Z,7.40
2018-02-23T18:35:35.031Z,7.00
2018-02-23T18:38:10.540Z,6.50
2018-02-23T18:40:39.834Z,7.10
2018-02-23T18:43:07.125Z,5.57
2018-02-23T18:45:34.464Z,10.00
2018-02-23T18:48:01.829Z,7.00
2018-02-23T18:50:52.840Z,8.33
2018-02-23T18:53:20.551Z,8.63
2018-02-23T18:55:48.848Z,5.50
2018-02-23T18:58:20.509Z,7.33
2018-02-23T19:01:02.648Z,6.73
2018-02-23T19:03:29.991Z,8.80
2018-02-23T19:12:10.252Z,5.30
2018-02-23T19:14:42.811Z,7.07
2018-02-23T19:17:25.403Z,5.43
2018-02-23T19:19:52.729Z,4.67
2018-02-23T19:22:20.410Z,6.87
2018-02-23T19:24:47.745Z,5.60
2018-02-23T19:27:15.494Z,5.37
2018-02-23T19:29:42.758Z,4.70
2018-02-23T19:32:10.446Z,5.47
2018-02-23T19:34:37.714Z,6.03
2018-02-23T19:37:08.916Z,5.60
2018-02-23T19:39:36.196Z,4.40
2018-02-23T19:42:03.469Z,6.43
2018-02-23T19:47:36.313Z,3.50
2018-02-23T19:50:08.501Z,2.27
2018-02-23T19:52:39.525Z,3.67
2018-02-23T19:55:06.839Z,4.97
2018-02-23T19:57:34.161Z,4.40
2018-02-23T20:00:01.854Z,3.50
2018-02-23T20:02:36.741Z,5.70
2018-02-23T20:05:04.414Z,4.20
2018-02-23T20:07:31.683Z,2.53
2018-02-23T20:10:10.674Z,5.43
2018-02-23T20:12:37.968Z,4.93
2018-02-23T20:15:05.296Z,6.10
2018-02-23T20:20:50.170Z,2.77
2018-02-23T20:23:17.492Z,5.77
2018-02-23T20:25:44.814Z,4.93
2018-02-23T20:28:12.089Z,4.20
2018-02-23T20:30:39.482Z,3.47
2018-02-23T20:33:12.284Z,5.17
2018-02-23T20:35:40.044Z,3.53
2018-02-23T20:38:07.717Z,3.00
2018-02-23T20:40:35.008Z,2.67
2018-02-23T20:43:02.337Z,4.33
2018-02-23T20:45:34.808Z,4.17
2018-02-23T20:48:02.166Z,5.50
2018-02-23T20:50:50.582Z,6.17
2018-02-23T20:53:17.936Z,4.43
2018-02-23T20:55:45.271Z,3.40
2018-02-23T20:58:12.598Z,4.53
2018-02-23T21:03:39.450Z,4.33
2018-02-23T21:06:13.667Z,4.13
2018-02-23T21:08:44.830Z,3.93
2018-02-23T21:11:19.023Z,3.67
2018-02-23T21:13:46.395Z,4.70
2018-02-23T21:16:37.798Z,4.27
2018-02-23T21:19:05.286Z,2.90
2018-02-23T21:21:40.854Z,4.20
2018-02-23T21:24:08.377Z,3.27
2018-02-23T21:26:37.014Z,4.97
2018-02-23T21:29:05.010Z,3.77
2018-02-23T21:31:33.301Z,5.03
2018-02-23T21:34:00.668Z,6.57
2018-02-23T21:36:38.671Z,4.90
2018-02-23T21:39:06.266Z,2.13
2018-02-23T21:41:49.653Z,3.90
2018-02-23T21:44:17.026Z,3.30
2018-02-23T21:46:47.725Z,3.83
2018-02-23T21:49:15.182Z,3.93
2018-02-23T21:51:42.755Z,3.63
2018-02-23T21:54:10.139Z,2.53
2018-02-23T21:56:37.534Z,4.53
2018-02-23T21:59:06.572Z,3.93
2018-02-23T22:01:33.888Z,4.97
2018-02-23T22:04:01.667Z,4.27
2018-02-23T22:06:39.441Z,4.43
2018-02-23T22:09:19.181Z,4.67
2018-02-23T22:11:52.365Z,5.27
2018-02-23T22:14:19.970Z,3.73
2018-02-23T22:16:47.355Z,2.60
2018-02-23T22:19:14.690Z,5.27
2018-02-23T22:21:42.131Z,1.53
2018-02-23T22:24:15.674Z,4.30
2018-02-23T22:26:43.007Z,2.60
2018-02-23T22:29:10.388Z,2.57
2018-02-23T22:31:37.762Z,3.77
2018-02-23T22:34:09.847Z,4.67
2018-02-23T22:36:40.710Z,2.50
2018-02-23T22:39:08.094Z,4.03
2018-02-23T22:41:35.514Z,3.93
2018-02-23T22:44:02.863Z,3.37
2018-02-23T22:46:30.216Z,1.13
2018-02-23T22:48:57.595Z,2.20
2018-02-23T22:51:26.879Z,2.87
2018-02-23T22:53:54.188Z,3.30
2018-02-23T22:56:21.559Z,1.40
2018-02-23T22:58:49.297Z,1.03
2018-02-23T23:01:17.666Z,3.43
2018-02-23T23:03:45.034Z,2.80
2018-02-23T23:06:14.418Z,3.47
2018-02-23T23:09:06.158Z,2.77
2018-02-23T23:14:06.763Z,4.90
2018-02-23T23:16:34.479Z,3.37
2018-02-23T23:19:01.742Z,1.37
2018-02-23T23:21:29.031Z,2.97
2018-02-23T23:23:56.318Z,3.63
2018-02-23T23:26:23.634Z,3.07
2018-02-23T23:28:51.298Z,4.13
2018-02-23T23:31:18.622Z,3.93
2018-02-23T23:33:45.933Z,2.40
2018-02-23T23:36:13.243Z,1.60
2018-02-23T23:38:40.960Z,3.00
2018-02-23T23:41:27.935Z,2.23
2018-02-23T23:43:55.206Z,3.40
2018-02-23T23:46:22.541Z,1.10
2018-02-23T23:48:50.203Z,0.67
2018-02-23T23:51:31.532Z,4.07
2018-02-23T23:53:58.808Z,2.00
2018-02-23T23:56:26.156Z,3.43
2018-02-23T23:58:53.486Z,2.80
